Linthicum Heights, Maryland
Current Conditions -  °F | °C
As of 1:34 PM on Wednesday 26 Nov 2014 (Local Time) from KBWI Reporting Station
Light Snow Light Snow  
Wind Chill: 30°   Ceiling: 700
Heat Index: 36°   Visibility: 3mi
Dew Point: 34°   Wind: 7mph
Humidity: 93%   Direction: NA
Pressure: 29.9"   Gusts: NA
Location:  39.2°N, 76.66°W
Report Text: KBWI 261834Z VRB06KT 3SM -RASN BR BKN007 OVC011 02/01 A2990 RMK AO2 P0001
Loading
Personal Weather Stations






























Interactive Weather Map New forecast layout! Learn more

10-Day Weather Forecast

Advertisements
Track Severe Weather on mobile